Time;durP1;ratioP1;P1;durP2;ratioP2;P2;SDS_P1;SDS_P2;PMS_P1;PMS_P2;Temp;Humidity;BMP_temperature;BMP_pressure;BME280_temperature;BME280_humidity;BME280_pressure;Samples;Min_cycle;Max_cycle;Signal;HPM_P1;HPM_P2
2023/07/31 00:00:42;;;;;;;2.03;0.80;;;22.00;65.10;;;;;;5019371;28;20080;-64
2023/07/31 00:03:07;;;;;;;2.10;1.17;;;22.00;65.00;;;;;;5017179;28;20030;-64
2023/07/31 00:05:33;;;;;;;2.72;0.95;;;22.00;65.20;;;;;;5021891;28;20034;-62
2023/07/31 00:07:58;;;;;;;3.38;1.02;;;22.00;65.30;;;;;;5022542;28;20049;-63
2023/07/31 00:10:24;;;;;;;1.70;0.70;;;22.00;64.80;;;;;;5020513;28;20053;-64
2023/07/31 00:12:50;;;;;;;2.63;0.82;;;22.00;65.20;;;;;;5021372;28;20678;-65
2023/07/31 00:15:15;;;;;;;5.00;0.90;;;22.00;65.20;;;;;;5024384;28;20040;-63
2023/07/31 00:17:41;;;;;;;1.58;1.02;;;22.00;65.00;;;;;;5022305;28;20033;-63
2023/07/31 00:20:07;;;;;;;2.55;1.02;;;22.00;65.10;;;;;;5024014;28;20067;-63
2023/07/31 00:22:32;;;;;;;2.53;1.00;;;22.00;65.10;;;;;;5021946;28;20029;-63
2023/07/31 00:24:59;;;;;;;1.25;0.73;;;22.00;64.90;;;;;;5022122;28;20029;-63
2023/07/31 00:27:25;;;;;;;1.83;1.00;;;22.00;65.20;;;;;;5021819;28;20670;-64
2023/07/31 00:29:50;;;;;;;1.77;1.23;;;22.00;65.00;;;;;;5022074;28;20038;-64
2023/07/31 00:32:16;;;;;;;1.30;0.70;;;22.00;65.20;;;;;;5021210;28;20033;-64
2023/07/31 00:34:41;;;;;;;1.83;1.17;;;22.00;65.00;;;;;;5020520;28;20036;-64
2023/07/31 00:37:07;;;;;;;4.25;0.90;;;22.00;65.20;;;;;;5021573;28;20036;-65
2023/07/31 00:39:34;;;;;;;2.85;1.00;;;22.00;64.80;;;;;;5018840;28;20083;-63
2023/07/31 00:42:00;;;;;;;2.40;0.80;;;22.00;65.10;;;;;;5022768;28;20044;-64
2023/07/31 00:44:25;;;;;;;1.65;1.00;;;22.00;65.20;;;;;;5023634;28;20037;-64
2023/07/31 00:46:51;;;;;;;1.83;1.10;;;22.00;64.40;;;;;;5022294;28;20033;-63
2023/07/31 00:49:16;;;;;;;2.13;0.90;;;22.00;65.20;;;;;;5023797;28;20037;-59
2023/07/31 00:51:42;;;;;;;2.03;0.95;;;22.00;65.20;;;;;;5020721;28;20029;-64
2023/07/31 00:54:08;;;;;;;1.60;0.90;;;22.00;65.00;;;;;;5022551;28;20026;-64
2023/07/31 00:56:34;;;;;;;1.58;0.90;;;22.00;65.10;;;;;;5020877;28;20106;-64
2023/07/31 00:58:59;;;;;;;1.85;0.90;;;22.00;65.00;;;;;;5022977;28;20033;-63
2023/07/31 01:01:25;;;;;;;1.60;1.08;;;22.00;64.90;;;;;;5037583;22;20121;-48
2023/07/31 01:03:53;;;;;;;3.35;1.10;;;22.00;64.90;;;;;;5000051;28;20023;-54
2023/07/31 01:06:38;;;;;;;1.75;0.93;;;22.00;64.80;;;;;;5001138;28;20026;-50
2023/07/31 01:09:11;;;;;;;1.77;0.82;;;22.00;64.90;;;;;;4982608;28;20065;-54
2023/07/31 01:11:51;;;;;;;2.60;1.10;;;22.00;64.70;;;;;;4983023;28;20128;-51
2023/07/31 01:14:17;;;;;;;4.28;1.40;;;22.00;64.60;;;;;;4981900;28;20613;-50
2023/07/31 01:16:43;;;;;;;3.40;0.80;;;22.00;64.50;;;;;;4984089;28;20027;-49
2023/07/31 01:19:10;;;;;;;1.90;0.90;;;21.90;64.00;;;;;;4982212;28;20033;-56
2023/07/31 01:21:35;;;;;;;2.53;0.90;;;21.90;64.60;;;;;;4979343;28;20051;-51
2023/07/31 01:24:23;;;;;;;2.35;0.90;;;21.90;64.70;;;;;;4984875;28;20154;-51
2023/07/31 01:27:01;;;;;;;1.83;1.35;;;22.00;64.90;;;;;;4980501;28;20403;-51
2023/07/31 01:29:46;;;;;;;2.17;1.00;;;22.00;64.70;;;;;;4980597;28;20030;-56
2023/07/31 01:32:13;;;;;;;1.13;0.93;;;22.00;64.80;;;;;;4985425;28;20061;-51
2023/07/31 01:34:41;;;;;;;1.95;1.00;;;21.90;65.00;;;;;;4981232;28;20100;-55
2023/07/31 01:37:07;;;;;;;1.60;0.85;;;21.90;64.70;;;;;;4981277;28;25477;-53
2023/07/31 01:39:32;;;;;;;4.13;0.80;;;21.90;64.80;;;;;;4983422;28;20050;-53
2023/07/31 01:41:58;;;;;;;1.60;0.90;;;21.90;64.60;;;;;;4983065;28;20133;-48
2023/07/31 01:44:23;;;;;;;2.47;1.27;;;21.90;64.90;;;;;;4982932;28;20031;-52
2023/07/31 01:46:49;;;;;;;1.73;1.00;;;21.90;64.70;;;;;;4982277;28;20439;-57
2023/07/31 01:49:14;;;;;;;3.42;0.93;;;22.00;64.90;;;;;;4983877;28;20553;-48
2023/07/31 01:51:40;;;;;;;2.03;1.15;;;21.90;64.70;;;;;;4980989;28;20443;-51
2023/07/31 01:54:05;;;;;;;1.30;0.88;;;21.90;64.80;;;;;;4985277;28;20134;-57
2023/07/31 01:56:31;;;;;;;2.08;1.10;;;21.90;64.30;;;;;;4979442;28;20030;-53
2023/07/31 01:58:57;;;;;;;1.73;0.88;;;21.90;64.80;;;;;;4982174;28;20713;-52
2023/07/31 02:01:22;;;;;;;2.10;0.95;;;21.90;64.90;;;;;;4983132;28;20073;-52
2023/07/31 02:03:48;;;;;;;2.38;0.90;;;21.90;65.50;;;;;;4983656;28;20042;-56
2023/07/31 02:06:13;;;;;;;1.38;0.95;;;21.90;64.90;;;;;;4984554;28;20026;-51
2023/07/31 02:08:39;;;;;;;2.33;1.20;;;21.90;65.00;;;;;;4983833;28;20034;-51
2023/07/31 02:11:04;;;;;;;2.50;0.95;;;21.90;65.00;;;;;;4981973;28;20035;-50
2023/07/31 02:13:30;;;;;;;2.28;0.90;;;21.90;65.00;;;;;;4983457;28;20030;-56
2023/07/31 02:15:55;;;;;;;1.52;1.13;;;21.90;65.10;;;;;;4982478;28;20133;-48
2023/07/31 02:18:22;;;;;;;1.42;0.80;;;21.90;65.00;;;;;;4993936;28;20118;-48
2023/07/31 02:20:51;;;;;;;1.27;0.90;;;21.90;65.00;;;;;;4980538;28;20150;-56
2023/07/31 02:23:18;;;;;;;2.13;1.00;;;21.90;65.20;;;;;;4984710;28;20031;-50
2023/07/31 02:25:44;;;;;;;2.30;0.93;;;21.90;65.10;;;;;;4980289;28;20034;-54
2023/07/31 02:28:09;;;;;;;2.13;0.70;;;21.90;65.10;;;;;;4986552;28;20475;-50
2023/07/31 02:30:35;;;;;;;1.30;0.90;;;21.90;65.30;;;;;;4981588;28;20037;-52
2023/07/31 02:33:00;;;;;;;2.15;1.40;;;21.90;65.30;;;;;;4982598;28;20398;-57
2023/07/31 02:35:26;;;;;;;2.25;1.30;;;21.90;65.20;;;;;;4983518;28;20034;-49
2023/07/31 02:37:51;;;;;;;1.73;0.80;;;21.80;65.20;;;;;;4979085;28;20034;-51
2023/07/31 02:40:17;;;;;;;3.83;1.73;;;21.80;65.30;;;;;;4983949;28;20507;-54
2023/07/31 02:42:42;;;;;;;2.90;1.10;;;21.80;65.30;;;;;;4980513;28;20038;-49
2023/07/31 02:45:08;;;;;;;1.70;1.02;;;21.80;65.30;;;;;;4985170;28;20065;-52
2023/07/31 02:47:34;;;;;;;1.50;0.93;;;21.80;65.20;;;;;;4981055;28;20657;-52
2023/07/31 02:49:59;;;;;;;2.10;1.08;;;21.80;65.30;;;;;;4985057;28;20039;-48
2023/07/31 02:52:25;;;;;;;2.05;0.88;;;21.80;65.90;;;;;;4981264;28;20030;-54
2023/07/31 02:54:52;;;;;;;2.03;1.10;;;21.80;66.00;;;;;;4981609;28;20673;-57
2023/07/31 02:57:17;;;;;;;3.15;1.20;;;21.80;65.40;;;;;;4982387;28;20110;-55
2023/07/31 02:59:43;;;;;;;1.98;1.08;;;21.80;65.20;;;;;;4981350;28;20052;-57
2023/07/31 03:02:08;;;;;;;2.80;0.80;;;21.80;65.30;;;;;;4981789;28;20038;-50
2023/07/31 03:04:34;;;;;;;3.03;1.00;;;21.80;65.40;;;;;;4982105;28;20030;-53
2023/07/31 03:07:00;;;;;;;3.95;1.05;;;21.80;65.00;;;;;;4979742;28;20042;-48
2023/07/31 03:09:26;;;;;;;3.28;1.10;;;21.70;65.30;;;;;;4982162;28;20081;-54
2023/07/31 03:11:51;;;;;;;2.83;1.30;;;21.70;65.30;;;;;;4981614;28;20038;-53
2023/07/31 03:14:17;;;;;;;2.30;1.10;;;21.70;65.20;;;;;;4982859;28;20034;-53
2023/07/31 03:16:42;;;;;;;4.40;1.02;;;21.70;65.30;;;;;;4981025;28;20038;-48
2023/07/31 03:19:08;;;;;;;1.40;0.93;;;21.80;65.30;;;;;;4982115;28;20040;-52
2023/07/31 03:21:33;;;;;;;1.42;1.10;;;21.70;65.50;;;;;;4978512;28;20244;-59
2023/07/31 03:23:59;;;;;;;2.38;0.90;;;21.70;65.40;;;;;;4983126;28;20419;-49
2023/07/31 03:26:25;;;;;;;2.65;1.02;;;21.70;65.50;;;;;;4978658;28;20034;-49
2023/07/31 03:28:50;;;;;;;2.83;1.30;;;21.70;65.40;;;;;;4983315;28;20022;-54
2023/07/31 03:31:16;;;;;;;2.30;0.90;;;21.70;65.50;;;;;;4978232;28;20125;-48
2023/07/31 03:33:42;;;;;;;2.58;1.10;;;21.70;65.50;;;;;;4976692;28;20668;-48
2023/07/31 03:36:07;;;;;;;3.00;1.35;;;21.70;65.50;;;;;;4983713;28;20710;-48
2023/07/31 03:38:34;;;;;;;2.28;1.08;;;21.70;65.50;;;;;;4979618;28;20451;-48
2023/07/31 03:41:00;;;;;;;1.60;1.00;;;21.70;65.50;;;;;;4981573;28;20042;-49
2023/07/31 03:43:25;;;;;;;3.00;1.10;;;21.70;65.20;;;;;;4980599;28;20045;-50
2023/07/31 03:45:51;;;;;;;2.10;1.10;;;21.60;65.50;;;;;;4980957;28;20058;-50
2023/07/31 03:48:17;;;;;;;1.65;1.10;;;21.70;65.70;;;;;;4981748;28;20165;-57
2023/07/31 03:50:42;;;;;;;2.00;1.10;;;21.60;65.50;;;;;;4972966;28;20118;-48
2023/07/31 03:53:08;;;;;;;2.20;1.00;;;21.70;65.70;;;;;;4976520;28;20042;-47
2023/07/31 03:55:33;;;;;;;1.58;1.05;;;21.60;65.50;;;;;;4979433;28;20034;-51
2023/07/31 03:58:00;;;;;;;2.08;1.45;;;21.60;65.60;;;;;;4981452;28;20041;-58
2023/07/31 04:00:26;;;;;;;3.67;1.40;;;21.70;65.70;;;;;;4981344;28;20122;-51
2023/07/31 04:02:52;;;;;;;2.22;1.10;;;21.60;65.60;;;;;;4979238;28;20045;-48
2023/07/31 04:05:18;;;;;;;1.92;1.10;;;21.60;65.50;;;;;;4979853;28;20023;-49
2023/07/31 04:07:43;;;;;;;2.53;1.00;;;21.60;65.60;;;;;;4981063;28;20054;-54
2023/07/31 04:10:09;;;;;;;1.27;0.85;;;21.60;65.60;;;;;;4984906;28;20043;-55
2023/07/31 04:12:35;;;;;;;3.05;1.52;;;21.60;65.70;;;;;;4981794;28;20165;-48
2023/07/31 04:15:00;;;;;;;1.75;0.98;;;21.60;65.60;;;;;;4982488;28;20118;-49
2023/07/31 04:17:26;;;;;;;2.47;1.20;;;21.50;66.40;;;;;;4979934;28;20027;-51
2023/07/31 04:19:51;;;;;;;2.00;0.93;;;21.60;65.70;;;;;;4979628;28;20031;-56
2023/07/31 04:22:17;;;;;;;3.10;0.98;;;21.60;65.60;;;;;;4981838;28;20026;-53
2023/07/31 04:24:42;;;;;;;1.80;0.98;;;21.60;65.60;;;;;;4980838;28;20592;-52
2023/07/31 04:27:08;;;;;;;3.42;1.08;;;21.60;65.80;;;;;;4980982;28;20039;-52
2023/07/31 04:29:34;;;;;;;4.38;1.30;;;21.60;65.80;;;;;;4979967;28;20407;-57
2023/07/31 04:31:59;;;;;;;2.92;1.33;;;21.60;65.70;;;;;;4979049;28;20090;-51
2023/07/31 04:34:25;;;;;;;3.42;1.35;;;21.60;65.80;;;;;;4979858;28;20026;-50
2023/07/31 04:36:50;;;;;;;2.45;1.23;;;21.50;65.70;;;;;;4982145;28;20026;-52
2023/07/31 04:39:16;;;;;;;1.95;1.10;;;21.50;65.90;;;;;;4980856;28;20042;-49
2023/07/31 04:41:41;;;;;;;1.80;1.13;;;21.50;66.00;;;;;;4980498;28;20046;-50
2023/07/31 04:44:07;;;;;;;1.65;1.15;;;21.60;66.00;;;;;;4980353;28;20181;-57
2023/07/31 04:46:32;;;;;;;3.28;1.63;;;21.60;65.90;;;;;;4978094;28;20034;-59
2023/07/31 04:48:58;;;;;;;2.25;1.17;;;21.50;66.00;;;;;;4979978;28;20049;-53
2023/07/31 04:51:23;;;;;;;1.95;1.25;;;21.60;65.90;;;;;;4982492;28;20506;-49
2023/07/31 04:53:49;;;;;;;2.33;1.08;;;21.60;65.90;;;;;;4983047;28;20054;-54
2023/07/31 04:56:15;;;;;;;1.70;1.02;;;21.60;66.00;;;;;;4984402;28;20030;-56
2023/07/31 04:58:41;;;;;;;3.30;1.27;;;21.60;66.00;;;;;;4978690;28;20114;-51
2023/07/31 05:01:06;;;;;;;3.00;1.20;;;21.60;66.00;;;;;;4979846;28;20221;-57
2023/07/31 05:03:32;;;;;;;3.00;1.25;;;21.60;65.90;;;;;;4982129;28;20455;-52
2023/07/31 05:05:58;;;;;;;2.70;1.20;;;21.60;65.90;;;;;;4981945;28;20905;-48
2023/07/31 05:08:23;;;;;;;2.08;1.13;;;21.60;65.90;;;;;;4982833;28;20089;-54
2023/07/31 05:10:49;;;;;;;1.30;1.00;;;21.60;65.90;;;;;;4984223;28;20050;-55
2023/07/31 05:13:14;;;;;;;2.20;1.13;;;21.60;65.90;;;;;;4984355;28;20038;-48
2023/07/31 05:15:41;;;;;;;1.83;1.25;;;21.60;65.90;;;;;;4981928;28;20510;-50
2023/07/31 05:18:07;;;;;;;3.13;1.50;;;21.60;66.00;;;;;;4985112;28;20038;-50
2023/07/31 05:20:32;;;;;;;1.90;1.00;;;21.60;66.00;;;;;;4980332;28;20049;-48
2023/07/31 05:22:58;;;;;;;2.05;1.20;;;21.60;66.20;;;;;;4983804;28;20072;-52
2023/07/31 05:25:23;;;;;;;3.30;1.30;;;21.60;66.30;;;;;;4984022;28;20102;-53
2023/07/31 05:27:49;;;;;;;2.22;1.20;;;21.60;66.40;;;;;;4983834;28;20215;-51
2023/07/31 05:30:15;;;;;;;5.90;1.17;;;21.60;66.40;;;;;;4978660;28;20550;-52
2023/07/31 05:32:40;;;;;;;3.70;1.23;;;21.60;66.90;;;;;;4984186;28;20030;-49
2023/07/31 05:35:06;;;;;;;3.55;1.48;;;21.60;66.40;;;;;;4984354;28;20051;-54
2023/07/31 05:37:32;;;;;;;11.38;1.73;;;21.60;66.20;;;;;;4984915;28;20026;-56
2023/07/31 05:39:58;;;;;;;3.75;1.48;;;21.60;66.60;;;;;;4983320;28;20041;-56
2023/07/31 05:42:23;;;;;;;3.55;1.58;;;21.60;66.60;;;;;;4985289;28;20027;-48
2023/07/31 05:44:49;;;;;;;1.98;0.98;;;21.60;66.60;;;;;;4983356;28;20069;-48
2023/07/31 05:47:14;;;;;;;4.60;1.45;;;21.60;66.80;;;;;;4982887;28;20475;-55
2023/07/31 05:49:40;;;;;;;5.10;1.48;;;21.60;66.90;;;;;;4984088;28;20027;-54
2023/07/31 05:52:06;;;;;;;8.13;1.60;;;21.60;66.80;;;;;;4984603;28;20463;-52
2023/07/31 05:54:32;;;;;;;6.30;1.27;;;21.60;66.60;;;;;;4980846;28;20192;-48
2023/07/31 05:56:58;;;;;;;3.60;1.40;;;21.60;66.50;;;;;;4983164;28;20065;-48
2023/07/31 05:59:23;;;;;;;3.97;1.40;;;21.60;66.10;;;;;;4983161;28;20056;-48
2023/07/31 06:01:49;;;;;;;3.17;1.38;;;21.60;66.50;;;;;;4984450;28;20065;-54
2023/07/31 06:04:15;;;;;;;3.65;1.10;;;21.60;66.40;;;;;;4983431;28;20064;-56
2023/07/31 06:06:40;;;;;;;3.75;1.48;;;21.60;65.90;;;;;;4983772;28;20030;-48
2023/07/31 06:09:06;;;;;;;2.70;1.55;;;21.60;66.20;;;;;;4981940;28;20129;-47
2023/07/31 06:11:32;;;;;;;2.75;2.05;;;21.60;66.20;;;;;;4983878;28;20342;-49
2023/07/31 06:13:58;;;;;;;5.45;2.28;;;21.60;66.60;;;;;;4982502;28;20057;-53
2023/07/31 06:16:24;;;;;;;4.57;2.30;;;21.60;66.60;;;;;;4983779;28;20450;-56
2023/07/31 06:18:50;;;;;;;3.55;2.10;;;21.50;66.40;;;;;;4983528;28;20462;-48
2023/07/31 06:21:16;;;;;;;4.82;2.17;;;21.50;66.20;;;;;;4983620;28;20068;-51
2023/07/31 06:23:41;;;;;;;3.90;1.52;;;21.50;66.10;;;;;;4988767;28;20062;-55
2023/07/31 06:26:07;;;;;;;3.75;1.30;;;21.50;65.90;;;;;;4985560;28;20134;-49
2023/07/31 06:28:32;;;;;;;5.47;2.53;;;21.50;65.90;;;;;;4984743;28;20031;-52
2023/07/31 06:30:58;;;;;;;5.82;2.08;;;21.40;65.90;;;;;;4983518;28;20121;-56
2023/07/31 06:33:24;;;;;;;5.15;1.80;;;21.50;65.70;;;;;;4983003;28;20026;-55
2023/07/31 06:35:50;;;;;;;5.75;2.45;;;21.40;65.70;;;;;;4982810;28;21373;-54
2023/07/31 06:38:18;;;;;;;4.40;1.90;;;21.40;65.40;;;;;;4985272;28;20042;-59
2023/07/31 06:40:43;;;;;;;4.65;1.80;;;21.40;65.60;;;;;;4981916;28;20080;-49
2023/07/31 06:43:09;;;;;;;5.43;1.85;;;21.40;65.60;;;;;;4984701;28;20688;-52
2023/07/31 06:45:35;;;;;;;4.45;2.00;;;21.40;65.50;;;;;;4981654;28;20034;-54
2023/07/31 06:48:02;;;;;;;4.88;2.15;;;21.40;65.70;;;;;;4985515;28;20856;-49
2023/07/31 06:50:31;;;;;;;4.32;2.22;;;21.50;65.80;;;;;;4983675;28;20038;-50
2023/07/31 06:52:56;;;;;;;6.53;2.38;;;21.50;66.40;;;;;;4983404;28;20089;-53
2023/07/31 06:55:23;;;;;;;6.38;2.45;;;21.50;66.70;;;;;;4981409;28;20026;-55
2023/07/31 06:57:49;;;;;;;5.13;2.42;;;21.40;66.20;;;;;;4986703;28;20038;-59
2023/07/31 07:00:16;;;;;;;10.82;5.38;;;21.40;66.10;;;;;;4982312;28;20037;-51
2023/07/31 07:02:42;;;;;;;10.63;5.88;;;21.40;66.50;;;;;;4981446;28;20034;-53
2023/07/31 07:05:08;;;;;;;17.63;8.18;;;21.50;66.60;;;;;;4983040;28;20064;-49
2023/07/31 07:07:34;;;;;;;16.83;7.57;;;21.50;66.90;;;;;;4985239;28;20168;-54
2023/07/31 07:10:00;;;;;;;11.38;6.65;;;21.50;66.80;;;;;;4982392;28;20030;-53
2023/07/31 07:12:27;;;;;;;14.63;6.03;;;21.50;66.90;;;;;;4984235;28;20068;-52
2023/07/31 07:14:52;;;;;;;9.93;5.10;;;21.50;66.80;;;;;;4982903;28;20221;-54
2023/07/31 07:17:19;;;;;;;8.60;4.55;;;21.50;66.70;;;;;;4980303;28;20503;-50
2023/07/31 07:19:45;;;;;;;9.68;4.15;;;21.50;66.70;;;;;;4977111;28;20029;-49
2023/07/31 07:22:11;;;;;;;10.75;3.65;;;21.50;66.60;;;;;;4983752;28;20034;-50
2023/07/31 07:24:37;;;;;;;7.35;3.63;;;21.50;66.50;;;;;;4981147;28;20034;-49
2023/07/31 07:27:03;;;;;;;8.45;3.05;;;21.50;66.20;;;;;;4981223;28;20038;-53
2023/07/31 07:29:28;;;;;;;7.43;3.35;;;21.50;66.40;;;;;;4979621;28;20108;-54
2023/07/31 07:31:54;;;;;;;9.05;3.35;;;21.50;66.30;;;;;;4982740;28;20057;-52
2023/07/31 07:34:22;;;;;;;6.65;2.72;;;21.50;66.20;;;;;;4979155;28;20045;-57
2023/07/31 07:36:48;;;;;;;5.28;2.80;;;21.50;66.20;;;;;;4977506;28;20022;-57
2023/07/31 07:39:14;;;;;;;5.95;2.97;;;21.50;66.10;;;;;;4979966;28;20052;-60
2023/07/31 07:41:40;;;;;;;5.72;2.47;;;21.60;66.20;;;;;;4978100;28;20042;-57
2023/07/31 07:44:05;;;;;;;9.05;2.60;;;21.50;65.90;;;;;;4981442;28;20039;-52
2023/07/31 07:46:31;;;;;;;5.70;2.53;;;21.50;65.80;;;;;;4979129;28;20066;-53
2023/07/31 07:48:56;;;;;;;5.95;2.70;;;21.50;65.90;;;;;;4989530;28;20069;-57
2023/07/31 07:51:22;;;;;;;4.50;2.13;;;21.50;65.90;;;;;;4989056;28;20049;-53
2023/07/31 07:53:47;;;;;;;3.78;1.92;;;21.50;65.50;;;;;;4984225;28;20096;-48
2023/07/31 07:56:13;;;;;;;3.20;1.92;;;21.50;65.80;;;;;;4982099;28;20034;-54
2023/07/31 07:58:38;;;;;;;4.63;2.25;;;21.50;65.80;;;;;;4979657;28;20077;-59
2023/07/31 08:01:04;;;;;;;4.65;2.63;;;21.50;65.70;;;;;;4979200;28;20035;-49
2023/07/31 08:03:29;;;;;;;4.32;2.20;;;21.50;65.70;;;;;;4979483;28;20479;-54
2023/07/31 08:05:59;;;;;;;3.05;1.88;;;21.50;65.60;;;;;;4979501;28;20062;-52
2023/07/31 08:08:24;;;;;;;4.35;2.20;;;21.50;65.20;;;;;;4982934;28;20121;-54
2023/07/31 08:10:50;;;;;;;4.57;2.40;;;21.50;65.60;;;;;;4979249;28;20306;-52
2023/07/31 08:13:16;;;;;;;4.55;2.17;;;21.50;65.00;;;;;;4980500;28;20034;-49
2023/07/31 08:15:42;;;;;;;2.67;1.67;;;21.50;65.30;;;;;;4980084;28;20057;-55
2023/07/31 08:18:08;;;;;;;3.78;2.03;;;21.50;65.40;;;;;;4975947;28;20038;-54
2023/07/31 08:20:34;;;;;;;5.22;2.28;;;21.50;65.20;;;;;;4978458;28;20498;-56
2023/07/31 08:22:59;;;;;;;4.15;2.08;;;21.50;65.40;;;;;;4983165;28;20062;-54
2023/07/31 08:25:25;;;;;;;4.30;1.90;;;21.50;65.50;;;;;;4983809;28;20102;-51
2023/07/31 08:27:52;;;;;;;3.05;1.75;;;21.50;65.20;;;;;;4985080;28;20023;-58
2023/07/31 08:30:18;;;;;;;2.40;1.60;;;21.50;65.40;;;;;;4986173;28;20033;-55
2023/07/31 08:32:44;;;;;;;3.45;1.73;;;21.50;65.50;;;;;;4983527;28;20138;-53
2023/07/31 08:35:10;;;;;;;2.97;1.60;;;21.50;65.50;;;;;;4984810;28;20439;-54
2023/07/31 08:37:35;;;;;;;2.33;1.60;;;21.50;65.50;;;;;;4983404;28;20030;-57
2023/07/31 08:40:02;;;;;;;2.35;1.38;;;21.50;65.50;;;;;;4984091;28;20126;-57
2023/07/31 08:42:27;;;;;;;3.15;2.10;;;21.50;65.50;;;;;;4984132;28;20042;-55
2023/07/31 08:44:55;;;;;;;3.47;1.65;;;21.50;65.40;;;;;;4987302;28;20456;-54
2023/07/31 08:47:22;;;;;;;2.72;1.75;;;21.50;65.30;;;;;;4988926;28;20022;-54
2023/07/31 08:49:49;;;;;;;3.58;1.73;;;21.50;65.40;;;;;;4989606;28;20102;-55
2023/07/31 08:52:15;;;;;;;3.67;2.10;;;21.50;65.30;;;;;;4981132;28;20026;-55
2023/07/31 08:54:41;;;;;;;3.00;1.85;;;21.50;65.60;;;;;;4983367;28;20036;-55
2023/07/31 08:57:07;;;;;;;2.65;1.67;;;21.50;65.40;;;;;;4981898;28;20054;-53
2023/07/31 08:59:35;;;;;;;2.90;1.65;;;21.50;65.50;;;;;;4983922;28;20101;-49
2023/07/31 09:02:06;;;;;;;2.97;1.88;;;21.50;65.50;;;;;;4981778;28;20041;-50
2023/07/31 09:04:32;;;;;;;2.28;1.67;;;21.50;65.20;;;;;;4982971;28;20031;-50
2023/07/31 09:07:05;;;;;;;3.35;1.60;;;21.50;66.10;;;;;;4984979;28;20373;-56
2023/07/31 09:09:31;;;;;;;4.38;2.10;;;21.50;65.30;;;;;;4983762;28;20033;-53
2023/07/31 09:12:01;;;;;;;2.50;1.85;;;21.50;65.30;;;;;;4978642;28;20026;-55
2023/07/31 09:14:26;;;;;;;2.92;1.63;;;21.50;65.30;;;;;;4982624;28;20483;-52
2023/07/31 09:16:53;;;;;;;2.67;1.80;;;21.40;65.70;;;;;;4981014;28;20031;-52
2023/07/31 09:19:32;;;;;;;2.80;1.73;;;21.40;65.70;;;;;;4985122;28;20034;-57
2023/07/31 09:21:58;;;;;;;4.80;1.52;;;21.50;65.60;;;;;;4980650;28;20098;-51
2023/07/31 09:24:28;;;;;;;2.05;1.52;;;21.50;65.60;;;;;;4987630;28;20431;-54
2023/07/31 09:26:58;;;;;;;3.35;1.88;;;21.50;65.00;;;;;;4981115;28;20065;-52
2023/07/31 09:29:26;;;;;;;2.88;1.45;;;21.40;65.50;;;;;;4987871;28;20061;-51
2023/07/31 09:31:52;;;;;;;2.13;1.50;;;21.50;65.50;;;;;;4987909;28;20590;-59
2023/07/31 09:34:18;;;;;;;3.10;1.73;;;21.50;65.50;;;;;;4980953;28;20369;-55
2023/07/31 09:36:46;;;;;;;2.95;1.83;;;21.50;65.60;;;;;;4981337;28;20034;-57
2023/07/31 09:39:13;;;;;;;13.75;2.45;;;21.40;65.50;;;;;;4984217;28;20064;-57
2023/07/31 09:41:40;;;;;;;2.78;1.83;;;21.50;65.60;;;;;;4981579;28;20832;-55
2023/07/31 09:44:06;;;;;;;3.08;1.90;;;21.50;65.30;;;;;;4981518;28;20026;-54
2023/07/31 09:46:34;;;;;;;4.80;1.75;;;21.50;65.60;;;;;;4983264;28;20438;-54
2023/07/31 09:49:10;;;;;;;3.40;2.00;;;21.50;65.60;;;;;;4982479;28;20034;-52
2023/07/31 09:51:40;;;;;;;3.70;1.60;;;21.40;65.50;;;;;;4983148;28;20031;-54
2023/07/31 09:54:12;;;;;;;2.88;1.52;;;21.50;65.50;;;;;;4982769;28;20043;-57
2023/07/31 09:56:46;;;;;;;4.25;2.05;;;21.50;65.60;;;;;;4978979;28;20042;-50
2023/07/31 09:59:14;;;;;;;2.95;1.60;;;21.50;65.40;;;;;;4983248;28;21106;-56
2023/07/31 10:01:41;;;;;;;3.58;1.60;;;21.50;65.60;;;;;;4976393;28;20078;-51
2023/07/31 10:04:09;;;;;;;4.00;1.60;;;21.50;65.30;;;;;;4982220;28;20515;-52
2023/07/31 10:06:36;;;;;;;2.90;1.50;;;21.50;65.40;;;;;;4984568;28;20180;-51
2023/07/31 10:09:05;;;;;;;3.10;1.90;;;21.50;65.50;;;;;;4981757;28;20130;-54
2023/07/31 10:11:34;;;;;;;3.28;1.80;;;21.50;65.50;;;;;;4982014;28;20583;-49
2023/07/31 10:13:59;;;;;;;3.45;1.67;;;21.50;65.40;;;;;;4981443;28;20034;-54
2023/07/31 10:16:26;;;;;;;3.28;1.85;;;21.50;65.60;;;;;;4983267;28;20040;-53
2023/07/31 10:18:52;;;;;;;2.83;1.90;;;21.50;65.60;;;;;;4982347;28;20042;-53
2023/07/31 10:21:18;;;;;;;3.42;1.33;;;21.50;65.60;;;;;;4982248;28;20077;-52
2023/07/31 10:23:44;;;;;;;4.05;2.10;;;21.50;66.30;;;;;;4980619;28;20046;-54
2023/07/31 10:26:11;;;;;;;2.17;1.55;;;21.50;65.50;;;;;;4982548;28;20039;-48
2023/07/31 10:28:37;;;;;;;2.60;1.70;;;21.50;65.60;;;;;;4981495;28;20065;-55
2023/07/31 10:31:03;;;;;;;2.03;1.48;;;21.50;65.60;;;;;;4982177;28;20105;-58
2023/07/31 10:33:30;;;;;;;3.00;1.60;;;21.50;65.70;;;;;;4981121;28;20030;-51
2023/07/31 10:36:17;;;;;;;2.95;1.63;;;21.50;66.00;;;;;;4983431;28;20526;-57
2023/07/31 10:38:42;;;;;;;4.53;1.75;;;21.50;66.00;;;;;;4980636;28;20284;-49
2023/07/31 10:41:09;;;;;;;2.55;1.77;;;21.50;66.50;;;;;;4992289;28;20137;-54
2023/07/31 10:43:39;;;;;;;4.43;1.73;;;21.50;66.10;;;;;;4984787;28;20041;-51
2023/07/31 10:46:09;;;;;;;3.20;2.38;;;21.50;66.00;;;;;;4980675;28;20364;-58
2023/07/31 10:48:36;;;;;;;2.67;1.38;;;21.50;66.00;;;;;;4981716;28;20674;-50
2023/07/31 10:51:08;;;;;;;3.88;1.60;;;21.50;65.80;;;;;;4981340;28;20042;-51
2023/07/31 10:53:33;;;;;;;3.90;1.67;;;21.50;65.90;;;;;;4976103;28;20077;-51
2023/07/31 10:55:59;;;;;;;2.83;1.50;;;21.60;65.90;;;;;;4981088;28;20476;-50
2023/07/31 10:58:25;;;;;;;3.30;1.52;;;21.60;66.00;;;;;;4981649;28;20042;-55
2023/07/31 11:00:56;;;;;;;2.58;1.60;;;21.60;65.80;;;;;;4980458;28;20089;-53
2023/07/31 11:03:26;;;;;;;2.10;1.38;;;21.60;65.70;;;;;;4982568;28;20122;-55
2023/07/31 11:05:58;;;;;;;2.25;1.65;;;21.60;65.90;;;;;;4973522;28;20038;-51
2023/07/31 11:08:32;;;;;;;7.90;1.98;;;21.60;65.90;;;;;;4981224;28;20034;-53
2023/07/31 11:11:03;;;;;;;2.17;1.50;;;21.60;65.90;;;;;;4988081;28;20034;-50
2023/07/31 11:13:29;;;;;;;3.17;1.55;;;21.60;65.80;;;;;;4981105;28;20443;-53
2023/07/31 11:15:55;;;;;;;1.58;1.33;;;21.50;65.90;;;;;;4982862;28;20034;-57
2023/07/31 11:18:20;;;;;;;5.13;2.17;;;21.60;65.90;;;;;;4979387;28;21105;-51
2023/07/31 11:20:46;;;;;;;2.45;1.50;;;21.60;65.90;;;;;;4981270;28;20027;-54
2023/07/31 11:23:12;;;;;;;3.78;2.00;;;21.50;65.80;;;;;;4980194;28;20045;-51
2023/07/31 11:25:41;;;;;;;2.10;1.50;;;21.60;65.90;;;;;;4977858;28;20161;-55
2023/07/31 11:28:09;;;;;;;3.75;1.60;;;21.60;65.80;;;;;;4980903;28;20030;-49
2023/07/31 11:30:35;;;;;;;1.98;1.52;;;21.50;65.80;;;;;;4982055;28;20098;-48
2023/07/31 11:33:05;;;;;;;1.98;1.58;;;21.50;65.70;;;;;;4982187;28;20027;-49
2023/07/31 11:35:32;;;;;;;2.67;1.73;;;21.60;65.70;;;;;;4981430;28;20030;-49
2023/07/31 11:37:58;;;;;;;3.92;1.70;;;21.60;65.90;;;;;;4979294;28;20037;-57
2023/07/31 11:40:28;;;;;;;2.60;1.70;;;21.60;65.80;;;;;;4983761;28;20023;-56
2023/07/31 11:42:55;;;;;;;1.55;1.23;;;21.60;65.70;;;;;;4979782;28;20033;-50
2023/07/31 11:45:24;;;;;;;3.97;1.95;;;21.50;65.70;;;;;;4983047;28;20034;-48
2023/07/31 11:47:49;;;;;;;2.20;1.77;;;21.60;65.70;;;;;;4980886;28;20019;-49
2023/07/31 11:50:15;;;;;;;3.75;1.73;;;21.50;65.50;;;;;;4981397;28;20030;-50
2023/07/31 11:52:43;;;;;;;2.65;1.65;;;21.50;65.50;;;;;;4980837;28;20053;-50
2023/07/31 11:55:10;;;;;;;2.25;1.77;;;21.60;65.70;;;;;;4980587;28;20030;-58
2023/07/31 11:57:40;;;;;;;2.15;1.63;;;21.60;65.70;;;;;;4978583;28;20022;-51
2023/07/31 12:00:08;;;;;;;2.58;1.40;;;21.60;65.50;;;;;;4982644;28;20037;-51
2023/07/31 12:02:34;;;;;;;3.17;1.55;;;21.60;65.50;;;;;;4984523;28;20031;-50
2023/07/31 12:04:59;;;;;;;2.65;1.70;;;21.60;65.60;;;;;;4984147;28;20029;-52
2023/07/31 12:07:25;;;;;;;2.25;1.80;;;21.60;65.60;;;;;;4986586;28;20049;-53
2023/07/31 12:09:54;;;;;;;3.28;1.52;;;21.60;65.50;;;;;;4983715;28;20077;-54
2023/07/31 12:12:23;;;;;;;3.35;1.60;;;21.60;65.60;;;;;;4984400;28;20046;-49
2023/07/31 12:14:50;;;;;;;3.97;1.70;;;21.60;65.50;;;;;;4986189;28;20069;-56
2023/07/31 12:17:17;;;;;;;2.50;1.20;;;21.60;65.40;;;;;;4982829;28;20041;-50
2023/07/31 12:19:42;;;;;;;2.97;1.65;;;21.60;65.50;;;;;;4986049;28;20058;-49
2023/07/31 12:22:15;;;;;;;3.67;1.55;;;21.60;65.60;;;;;;4984231;28;20073;-50
2023/07/31 12:24:44;;;;;;;2.35;1.70;;;21.60;65.60;;;;;;4982952;28;20037;-55
2023/07/31 12:27:14;;;;;;;3.20;1.50;;;21.60;65.60;;;;;;4984651;28;20053;-55
2023/07/31 12:29:42;;;;;;;3.78;1.52;;;21.60;65.60;;;;;;4981492;28;20034;-51
2023/07/31 12:32:24;;;;;;;2.80;1.60;;;21.60;65.70;;;;;;4983894;28;20092;-49
2023/07/31 12:34:50;;;;;;;3.55;1.70;;;21.60;65.60;;;;;;4984287;28;20034;-50
2023/07/31 12:37:16;;;;;;;3.05;1.65;;;21.60;65.60;;;;;;4986352;28;20038;-53
2023/07/31 12:39:42;;;;;;;2.05;1.45;;;21.60;65.70;;;;;;4988966;28;20053;-55
2023/07/31 12:42:07;;;;;;;3.40;1.70;;;21.60;65.70;;;;;;4982605;28;20040;-55